Time;durP1;ratioP1;P1;durP2;ratioP2;P2;SDS_P1;SDS_P2;PMS_P1;PMS_P2;Temp;Humidity;BMP_temperature;BMP_pressure;BME280_temperature;BME280_humidity;BME280_pressure;Samples;Min_cycle;Max_cycle;Signal;HPM_P1;HPM_P2
2023/04/05 00:01:25;;;;;;;9.73;6.38;;;;;;;4.45;77.43;98746.53;5031926;28;20060;-89
2023/04/05 00:04:01;;;;;;;9.65;6.90;;;;;;;4.35;76.86;98730.16;5017491;28;20492;-90
2023/04/05 00:06:28;;;;;;;9.52;6.18;;;;;;;4.37;76.78;98727.06;5036008;28;20440;-88
2023/04/05 00:08:56;;;;;;;11.23;7.13;;;;;;;4.35;76.96;98750.34;5035535;28;20032;-87
2023/04/05 00:11:22;;;;;;;9.38;6.82;;;;;;;4.37;76.71;98738.16;5053866;28;20051;-88
2023/04/05 00:13:48;;;;;;;12.23;6.85;;;;;;;4.39;77.09;98756.06;5036409;28;20520;-88
2023/04/05 00:16:17;;;;;;;10.52;7.03;;;;;;;4.32;77.28;98745.41;5035474;28;20021;-88
2023/04/05 00:18:48;;;;;;;6.82;5.65;;;;;;;4.37;75.83;98743.69;5032862;28;20025;-86
2023/04/05 00:21:20;;;;;;;9.50;6.30;;;;;;;4.35;75.75;98739.28;5053112;28;20086;-86
2023/04/05 00:23:47;;;;;;;7.68;6.03;;;;;;;4.38;75.72;98742.56;5035260;28;20063;-87
2023/04/05 00:26:13;;;;;;;8.25;5.93;;;;;;;4.40;74.89;98745.81;5036182;28;20021;-87
2023/04/05 00:28:38;;;;;;;8.30;6.03;;;;;;;4.40;75.88;98740.28;5036196;28;20029;-88
2023/04/05 00:31:04;;;;;;;9.02;6.57;;;;;;;4.45;75.38;98748.47;5035450;28;20131;-88
2023/04/05 00:33:30;;;;;;;6.95;5.53;;;;;;;4.46;75.66;98752.88;5035473;28;20407;-89
2023/04/05 00:35:55;;;;;;;7.20;5.60;;;;;;;4.45;75.83;98756.78;5032540;28;20033;-88
2023/04/05 00:38:21;;;;;;;7.22;5.47;;;;;;;4.29;74.53;98723.91;5054103;28;20029;-88
2023/04/05 00:40:46;;;;;;;8.23;6.35;;;;;;;4.52;75.02;98764.66;5023554;28;20554;-88
2023/04/05 00:43:12;;;;;;;8.65;6.63;;;;;;;4.48;76.19;98764.47;5015898;28;20397;-88
2023/04/05 00:45:37;;;;;;;7.75;6.13;;;;;;;4.47;75.43;98765.63;5032520;28;20103;-88
2023/04/05 00:48:04;;;;;;;7.55;5.88;;;;;;;4.53;74.65;98771.84;5035487;28;20452;-88
2023/04/05 00:50:30;;;;;;;8.85;6.38;;;;;;;4.43;76.18;98757.09;5034794;28;20024;-89
2023/04/05 00:52:59;;;;;;;11.60;7.45;;;;;;;4.45;76.45;98770.63;5046402;28;20116;-88
2023/04/05 00:55:25;;;;;;;9.80;6.72;;;;;;;4.44;76.81;98774.53;5015775;28;20120;-86
2023/04/05 00:57:52;;;;;;;12.15;7.03;;;;;;;4.44;77.08;98763.44;5029093;28;20039;-87
2023/04/05 01:00:20;;;;;;;9.55;7.25;;;;;;;4.33;77.25;98760.91;5035059;28;20024;-89
2023/04/05 01:02:54;;;;;;;10.90;8.02;;;;;;;4.39;76.93;98769.91;5053125;28;20021;-89
2023/04/05 01:05:28;;;;;;;10.18;7.57;;;;;;;4.34;76.86;98776.41;5035408;28;20487;-88
2023/04/05 01:08:18;;;;;;;12.95;8.27;;;;;;;4.28;77.59;98755.50;5052835;28;20095;-87
2023/04/05 01:10:56;;;;;;;9.02;7.15;;;;;;;4.28;78.14;98766.56;5034510;28;20033;-88
2023/04/05 01:13:24;;;;;;;9.60;7.20;;;;;;;4.27;77.91;98772.41;5052688;28;20025;-88
2023/04/05 01:15:49;;;;;;;9.48;6.93;;;;;;;4.14;76.85;98758.25;5034432;28;20536;-88
2023/04/05 01:18:15;;;;;;;9.32;6.88;;;;;;;4.13;77.71;98755.81;5035087;28;20025;-88
2023/04/05 01:20:51;;;;;;;9.02;6.35;;;;;;;4.11;77.67;98771.94;5035203;28;20024;-87
2023/04/05 01:23:36;;;;;;;8.95;7.25;;;;;;;4.00;77.84;98761.06;5052757;28;20024;-89
2023/04/05 01:27:05;;;;;;;8.45;6.47;;;;;;;4.04;78.31;98759.31;5031252;28;20412;-87
2023/04/05 01:29:57;;;;;;;9.93;7.40;;;;;;;4.06;77.71;98753.47;4954112;28;20067;-87
2023/04/05 01:32:22;;;;;;;10.80;8.10;;;;;;;4.07;77.81;98775.28;4954974;28;20661;-86
2023/04/05 01:35:08;;;;;;;8.10;6.28;;;;;;;3.99;77.30;98764.13;5006161;28;20056;-89
2023/04/05 01:37:35;;;;;;;11.68;7.90;;;;;;;3.97;77.73;98761.66;5034442;28;20108;-88
2023/04/05 01:40:03;;;;;;;17.30;10.43;;;;;;;3.86;78.55;98749.16;5033971;28;20069;-88
2023/04/05 01:42:29;;;;;;;23.73;12.68;;;;;;;3.88;78.25;98761.56;5034641;28;20028;-88
2023/04/05 01:44:56;;;;;;;9.32;7.38;;;;;;;3.98;78.79;98779.94;5034717;28;20025;-88
2023/04/05 01:47:21;;;;;;;18.65;12.50;;;;;;;3.87;78.45;98770.19;5033656;28;20039;-87
2023/04/05 01:49:47;;;;;;;13.15;9.07;;;;;;;3.90;79.11;98786.19;5034114;28;20022;-87
2023/04/05 01:52:13;;;;;;;11.00;8.10;;;;;;;3.91;79.13;98788.63;5034608;28;20032;-86
2023/04/05 01:54:38;;;;;;;11.48;8.00;;;;;;;3.83;79.56;98791.28;5030515;28;20416;-87
2023/04/05 01:57:04;;;;;;;9.73;7.10;;;;;;;3.68;79.28;98775.78;5014460;28;20515;-88
2023/04/05 01:59:30;;;;;;;9.77;7.43;;;;;;;3.76;79.57;98791.69;5033021;28;20027;-89
2023/04/05 02:01:55;;;;;;;11.02;7.70;;;;;;;3.68;79.39;98784.09;5034576;28;20025;-89
2023/04/05 02:04:21;;;;;;;11.40;8.07;;;;;;;3.61;79.75;98777.03;5032542;28;20049;-88
2023/04/05 02:06:46;;;;;;;10.82;8.05;;;;;;;3.65;79.78;98785.53;5051757;28;20032;-87
2023/04/05 02:09:12;;;;;;;9.40;7.30;;;;;;;3.66;79.81;98787.19;5033742;28;20021;-88
2023/04/05 02:11:37;;;;;;;12.65;7.70;;;;;;;3.44;79.98;98769.31;5033303;28;20033;-88
2023/04/05 02:14:03;;;;;;;11.38;8.02;;;;;;;3.53;79.66;98785.22;5034095;28;20116;-88
2023/04/05 02:16:31;;;;;;;11.45;8.07;;;;;;;3.47;79.78;98781.72;5034275;28;20024;-87
2023/04/05 02:18:58;;;;;;;16.73;8.38;;;;;;;3.53;80.11;98797.09;5033823;28;20075;-87
2023/04/05 02:21:25;;;;;;;14.48;9.13;;;;;;;3.50;79.70;98793.00;5032968;28;20033;-88
2023/04/05 02:23:51;;;;;;;12.30;7.82;;;;;;;3.51;79.67;98799.34;5034057;28;20071;-89
2023/04/05 02:26:17;;;;;;;10.48;6.78;;;;;;;3.44;79.46;98790.63;5050521;28;20380;-87
2023/04/05 02:28:43;;;;;;;10.45;8.05;;;;;;;3.37;79.70;98793.78;5052300;28;20051;-88
2023/04/05 02:31:12;;;;;;;12.18;8.70;;;;;;;3.41;79.54;98791.22;5051437;28;20095;-88
2023/04/05 02:33:39;;;;;;;11.95;8.30;;;;;;;3.39;79.12;98796.25;5033846;28;20017;-88
2023/04/05 02:36:06;;;;;;;10.57;7.78;;;;;;;3.40;78.81;98793.19;5033689;28;20056;-87
2023/04/05 02:38:32;;;;;;;10.07;7.35;;;;;;;3.42;78.54;98790.09;5032895;28;20039;-88
2023/04/05 02:40:58;;;;;;;11.93;8.00;;;;;;;3.48;78.17;98800.75;5033210;28;20021;-90
2023/04/05 02:43:24;;;;;;;10.52;7.97;;;;;;;3.55;77.83;98805.91;5050252;28;20032;-90
2023/04/05 02:45:50;;;;;;;10.93;7.40;;;;;;;3.42;78.22;98785.41;5033731;28;20094;-89
2023/04/05 02:48:15;;;;;;;9.88;6.95;;;;;;;3.45;78.01;98790.31;5033783;28;20118;-86
2023/04/05 02:50:41;;;;;;;11.00;7.43;;;;;;;3.36;77.89;98776.38;5050165;28;20053;-88
2023/04/05 02:53:06;;;;;;;10.60;7.32;;;;;;;3.58;77.67;98797.00;5026981;28;20021;-90
2023/04/05 02:55:33;;;;;;;11.68;7.85;;;;;;;3.47;77.58;98782.53;5029713;28;20021;-89
2023/04/05 02:58:02;;;;;;;10.27;7.13;;;;;;;3.41;76.92;98774.63;5048082;28;20078;-86
2023/04/05 03:00:27;;;;;;;11.25;7.65;;;;;;;3.68;76.90;98804.28;5033703;28;20020;-89
2023/04/05 03:02:54;;;;;;;10.30;7.65;;;;;;;3.60;76.88;98802.22;5033774;28;20408;-87
2023/04/05 03:05:21;;;;;;;12.23;8.02;;;;;;;3.64;76.55;98794.97;5033525;28;20032;-90
2023/04/05 03:07:49;;;;;;;12.55;8.63;;;;;;;3.73;77.21;98818.00;5033187;28;20054;-88
2023/04/05 03:10:17;;;;;;;11.07;7.68;;;;;;;3.67;77.20;98801.81;5032618;28;20027;-88
2023/04/05 03:12:45;;;;;;;12.75;8.27;;;;;;;3.79;77.05;98822.34;5051310;28;20017;-88
2023/04/05 03:15:10;;;;;;;12.68;7.78;;;;;;;3.90;76.37;98827.69;5033020;28;20119;-89
2023/04/05 03:17:36;;;;;;;11.73;8.13;;;;;;;3.85;76.58;98827.75;5037417;28;20113;-87
2023/04/05 03:20:05;;;;;;;11.38;8.13;;;;;;;3.75;76.36;98814.97;5032114;28;20466;-88
2023/04/05 03:22:30;;;;;;;12.93;8.90;;;;;;;3.76;75.68;98814.66;5037881;28;20491;-86
2023/04/05 03:24:56;;;;;;;11.38;8.07;;;;;;;3.78;76.19;98814.34;5037376;28;20029;-88
2023/04/05 03:27:21;;;;;;;13.23;9.15;;;;;;;3.83;76.05;98828.09;5036254;28;20063;-88
2023/04/05 03:29:47;;;;;;;20.15;10.90;;;;;;;3.88;76.40;98838.25;5036325;28;20427;-86
2023/04/05 03:32:14;;;;;;;23.35;12.63;;;;;;;3.83;75.82;98828.09;5037485;28;20028;-89
2023/04/05 03:34:39;;;;;;;22.35;12.10;;;;;;;3.82;75.53;98833.91;5036996;28;20549;-89
2023/04/05 03:37:05;;;;;;;19.00;12.43;;;;;;;3.70;76.23;98826.94;5035140;28;20029;-87
2023/04/05 03:39:30;;;;;;;15.70;9.75;;;;;;;3.73;75.42;98826.31;5036816;28;20036;-86
2023/04/05 03:41:56;;;;;;;12.60;8.95;;;;;;;3.75;75.76;98832.38;5036847;28;20048;-88
2023/04/05 03:44:21;;;;;;;12.70;8.50;;;;;;;3.88;76.25;98841.00;5052781;28;20028;-88
2023/04/05 03:46:47;;;;;;;11.32;8.13;;;;;;;3.76;76.31;98831.25;5036890;28;20111;-90
2023/04/05 03:49:12;;;;;;;16.30;9.65;;;;;;;3.80;76.08;98834.22;5036842;28;20577;-87
2023/04/05 03:51:38;;;;;;;11.45;8.50;;;;;;;3.90;76.46;98835.97;5054364;28;20122;-88
2023/04/05 03:54:03;;;;;;;12.85;8.98;;;;;;;3.93;76.21;98838.13;5036736;28;20045;-87
2023/04/05 03:56:29;;;;;;;13.05;8.57;;;;;;;3.90;76.85;98822.16;5037074;28;20115;-88
2023/04/05 03:58:55;;;;;;;14.43;9.63;;;;;;;4.11;76.80;98852.19;5035849;28;20032;-88
2023/04/05 04:01:20;;;;;;;12.15;8.57;;;;;;;3.81;77.55;98826.75;5035447;28;20458;-88
2023/04/05 04:03:46;;;;;;;13.85;9.90;;;;;;;3.90;76.35;98860.88;5036655;28;20032;-88
2023/04/05 04:06:12;;;;;;;12.65;8.80;;;;;;;3.76;76.15;98855.31;5036239;28;20024;-87
2023/04/05 04:08:38;;;;;;;15.93;10.20;;;;;;;3.57;76.39;98828.56;5036304;28;20025;-89
2023/04/05 04:11:03;;;;;;;12.27;8.40;;;;;;;3.54;75.78;98842.16;5036204;28;20033;-87
2023/04/05 04:13:29;;;;;;;11.95;7.93;;;;;;;3.56;75.32;98856.50;5036068;28;20040;-89
2023/04/05 04:15:54;;;;;;;18.58;9.38;;;;;;;3.64;75.69;98875.19;5035827;28;20091;-87
2023/04/05 04:18:20;;;;;;;12.18;8.60;;;;;;;3.57;76.24;98869.22;5035476;28;20483;-88
2023/04/05 04:20:46;;;;;;;11.82;8.38;;;;;;;3.57;75.67;98875.56;5053843;28;20079;-89
2023/04/05 04:23:13;;;;;;;12.40;8.88;;;;;;;3.51;75.97;98860.19;5054019;28;20029;-91
2023/04/05 04:25:40;;;;;;;14.32;9.23;;;;;;;3.47;76.04;98853.63;5053710;28;20024;-89
2023/04/05 04:28:06;;;;;;;11.80;8.02;;;;;;;3.56;76.66;98884.16;5035427;28;20120;-87
2023/04/05 04:30:33;;;;;;;16.27;10.50;;;;;;;3.63;76.98;98893.72;5052377;28;20029;-87
2023/04/05 04:33:07;;;;;;;14.73;9.27;;;;;;;3.58;77.27;98877.22;5036040;28;20044;-88
2023/04/05 04:35:33;;;;;;;12.00;9.13;;;;;;;3.69;78.00;98886.16;5034798;28;20049;-89
2023/04/05 04:38:00;;;;;;;14.18;9.20;;;;;;;3.76;77.26;98889.34;5053351;28;20025;-88
2023/04/05 04:40:39;;;;;;;15.90;10.35;;;;;;;3.87;77.30;98895.50;5035581;28;20116;-88
2023/04/05 04:43:13;;;;;;;23.63;12.70;;;;;;;3.87;76.73;98900.25;5035605;28;20031;-89
2023/04/05 04:45:47;;;;;;;14.32;9.85;;;;;;;3.92;76.61;98897.38;5035330;28;20025;-89
2023/04/05 04:48:15;;;;;;;12.82;8.80;;;;;;;3.95;75.00;98904.25;5035822;28;20547;-87
2023/04/05 04:50:42;;;;;;;10.75;7.97;;;;;;;3.85;74.91;98902.47;5052305;28;20099;-88
2023/04/05 04:53:09;;;;;;;13.30;8.82;;;;;;;3.65;74.49;98874.88;5035118;28;20033;-88
2023/04/05 04:55:35;;;;;;;13.20;9.68;;;;;;;3.79;74.45;98910.03;5035365;28;20024;-88
2023/04/05 04:58:08;;;;;;;13.57;8.77;;;;;;;3.84;74.05;98920.19;5034716;28;20167;-88
2023/04/05 05:00:34;;;;;;;13.13;7.88;;;;;;;3.86;74.14;98918.78;5051439;28;20107;-87
2023/04/05 05:03:00;;;;;;;17.23;12.10;;;;;;;3.77;74.58;98913.13;5034809;28;20077;-89
2023/04/05 05:05:26;;;;;;;15.65;9.68;;;;;;;3.72;74.23;98920.69;5035108;28;20488;-89
2023/04/05 05:07:52;;;;;;;12.45;8.77;;;;;;;3.88;74.57;98912.94;5052813;28;20025;-88
2023/04/05 05:10:18;;;;;;;9.07;7.22;;;;;;;3.86;73.78;98929.00;5035301;28;20130;-87
2023/04/05 05:12:43;;;;;;;10.63;7.25;;;;;;;3.96;74.19;98926.06;5035743;28;20483;-87
2023/04/05 05:15:10;;;;;;;13.27;8.63;;;;;;;4.07;73.67;98923.94;5034787;28;20037;-88
2023/04/05 05:17:36;;;;;;;21.00;11.30;;;;;;;3.97;72.82;98927.69;5044097;28;20029;-88
2023/04/05 05:20:09;;;;;;;22.42;12.80;;;;;;;4.12;73.84;98939.66;5034002;28;20032;-88
2023/04/05 05:22:36;;;;;;;15.43;10.48;;;;;;;4.17;73.77;98932.06;5040428;28;20016;-88
2023/04/05 05:25:02;;;;;;;21.48;12.13;;;;;;;4.24;73.24;98931.66;5043857;28;20450;-88
2023/04/05 05:27:28;;;;;;;17.15;11.32;;;;;;;4.28;73.07;98931.84;5042982;28;20025;-87
2023/04/05 05:29:54;;;;;;;16.98;10.68;;;;;;;4.28;72.10;98927.16;5040372;28;20491;-87
2023/04/05 05:32:19;;;;;;;20.65;10.82;;;;;;;4.43;71.84;98933.50;5059519;28;20029;-87
2023/04/05 05:34:47;;;;;;;13.85;6.97;;;;;;;4.41;70.56;98942.16;5037671;28;20048;-89
2023/04/05 05:37:13;;;;;;;21.70;9.70;;;;;;;4.58;72.04;98941.50;5030660;28;20079;-89
2023/04/05 05:39:38;;;;;;;19.02;11.45;;;;;;;4.68;70.06;98939.66;5024310;28;20037;-87
2023/04/05 05:42:04;;;;;;;13.60;9.02;;;;;;;4.72;70.21;98944.28;5029176;28;20033;-88
2023/04/05 05:44:30;;;;;;;8.15;6.25;;;;;;;4.74;69.55;98943.97;5029173;28;20044;-86
2023/04/05 05:46:56;;;;;;;7.28;6.25;;;;;;;4.81;67.66;98952.69;5030751;28;20036;-88
2023/04/05 05:49:22;;;;;;;10.65;5.88;;;;;;;4.84;69.23;98940.16;5022125;28;20025;-87
2023/04/05 05:51:48;;;;;;;9.45;6.45;;;;;;;4.94;67.90;98947.44;5025076;28;20025;-88
2023/04/05 05:54:14;;;;;;;7.75;5.65;;;;;;;5.05;70.27;98948.84;5030373;28;20044;-89
2023/04/05 05:56:39;;;;;;;6.53;5.05;;;;;;;5.03;68.05;98940.03;5015339;28;20032;-90
2023/04/05 05:59:05;;;;;;;18.70;10.07;;;;;;;4.97;66.69;98933.78;5028488;28;20121;-87
2023/04/05 06:01:33;;;;;;;7.70;5.45;;;;;;;5.10;68.26;98932.13;5029871;28;20029;-88
2023/04/05 06:03:59;;;;;;;6.22;5.03;;;;;;;5.16;67.66;98947.50;5031428;28;20192;-89
2023/04/05 06:06:25;;;;;;;9.38;6.90;;;;;;;5.15;66.54;98948.63;5049164;28;20051;-88
2023/04/05 06:08:51;;;;;;;7.60;4.75;;;;;;;5.20;67.46;98948.53;5029339;28;20024;-88
2023/04/05 06:11:21;;;;;;;5.35;4.18;;;;;;;5.15;66.96;98937.53;5029959;28;20028;-88
2023/04/05 06:13:48;;;;;;;7.15;5.68;;;;;;;5.11;67.09;98963.44;5029600;28;20056;-88
2023/04/05 06:16:14;;;;;;;10.52;5.85;;;;;;;5.18;67.99;98956.31;5043638;28;20571;-87
2023/04/05 06:18:40;;;;;;;6.05;4.82;;;;;;;5.32;67.31;98961.03;5031567;28;20124;-88
2023/04/05 06:21:06;;;;;;;6.53;5.35;;;;;;;5.13;66.53;98950.91;5033745;28;20021;-87
2023/04/05 06:23:31;;;;;;;6.30;4.88;;;;;;;5.04;66.57;98958.31;5032656;28;20033;-88
2023/04/05 06:25:57;;;;;;;5.25;4.15;;;;;;;4.98;66.75;98952.06;5031868;28;20045;-88
2023/04/05 06:28:22;;;;;;;5.22;4.65;;;;;;;5.09;67.06;98949.88;5033781;28;20017;-88
2023/04/05 06:30:48;;;;;;;6.07;4.30;;;;;;;5.07;66.20;98968.78;5051508;28;20509;-88
2023/04/05 06:33:13;;;;;;;6.05;5.15;;;;;;;5.13;67.48;98963.94;5051501;28;20021;-89
2023/04/05 06:35:39;;;;;;;13.45;7.38;;;;;;;5.26;68.01;98967.81;5049113;28;20057;-88
2023/04/05 06:38:05;;;;;;;15.70;8.85;;;;;;;5.24;67.87;98970.09;5032344;28;20064;-87
2023/04/05 06:40:30;;;;;;;18.98;10.82;;;;;;;5.01;67.60;98942.31;5031918;28;20029;-88
2023/04/05 06:42:55;;;;;;;9.70;6.18;;;;;;;5.07;67.47;98949.38;5030731;28;20025;-90
2023/04/05 06:45:21;;;;;;;12.57;7.47;;;;;;;5.14;69.56;98952.53;5029933;28;20110;-89
2023/04/05 06:47:48;;;;;;;14.50;8.65;;;;;;;5.08;67.54;98937.16;5031277;28;20064;-90
2023/04/05 06:50:13;;;;;;;7.90;6.38;;;;;;;5.12;66.52;98959.53;5028334;28;20051;-88
2023/04/05 06:52:39;;;;;;;9.32;6.25;;;;;;;5.17;66.51;98985.19;5030811;28;20563;-87
2023/04/05 06:55:05;;;;;;;18.55;7.22;;;;;;;5.24;68.22;98981.97;5030066;28;20515;-88
2023/04/05 06:57:31;;;;;;;7.80;5.32;;;;;;;5.45;67.82;98987.91;5031085;28;20109;-87
2023/04/05 06:59:57;;;;;;;20.63;7.03;;;;;;;5.43;66.61;98986.56;5026797;28;20044;-88
2023/04/05 07:02:22;;;;;;;6.22;4.18;;;;;;;5.47;64.67;98993.97;5047634;28;20113;-88
2023/04/05 07:04:48;;;;;;;7.63;4.70;;;;;;;5.41;65.76;98989.66;5028386;28;20123;-88
2023/04/05 07:07:14;;;;;;;21.95;8.90;;;;;;;5.54;67.06;98998.25;5026055;28;20025;-89
2023/04/05 07:09:39;;;;;;;8.00;6.07;;;;;;;5.47;66.14;98998.69;5027954;28;20032;-88
2023/04/05 07:12:06;;;;;;;11.65;5.70;;;;;;;5.52;64.75;99017.16;5019330;28;20041;-88
2023/04/05 07:14:34;;;;;;;7.18;5.47;;;;;;;5.44;64.34;99002.09;5027050;28;20098;-87
2023/04/05 07:17:00;;;;;;;8.82;5.35;;;;;;;5.47;64.71;99013.38;5031224;28;20114;-88
2023/04/05 07:19:26;;;;;;;14.65;6.47;;;;;;;5.56;65.66;99015.44;5031276;28;20029;-90
2023/04/05 07:21:51;;;;;;;14.18;6.43;;;;;;;5.79;64.89;99018.19;5029421;28;20020;-87
2023/04/05 07:24:17;;;;;;;11.05;5.93;;;;;;;5.73;64.59;99007.22;5031162;28;20052;-88
2023/04/05 07:26:43;;;;;;;11.90;6.20;;;;;;;5.86;64.12;99008.34;5031295;28;20040;-88
2023/04/05 07:29:10;;;;;;;13.25;5.85;;;;;;;5.76;64.08;99012.16;5024772;28;20014;-88
2023/04/05 07:31:37;;;;;;;12.98;4.93;;;;;;;5.84;64.54;99007.00;5047393;28;20032;-89
2023/04/05 07:34:03;;;;;;;8.00;3.35;;;;;;;5.53;63.21;99011.31;5032275;28;20047;-89
2023/04/05 07:36:29;;;;;;;4.28;3.42;;;;;;;5.59;64.33;99014.78;5033524;28;20025;-89
2023/04/05 07:38:58;;;;;;;11.45;6.28;;;;;;;5.53;62.30;99014.09;5028101;28;20021;-88
2023/04/05 07:41:25;;;;;;;18.00;6.53;;;;;;;5.78;65.25;99022.13;5030715;28;20025;-89
2023/04/05 07:43:50;;;;;;;3.70;3.13;;;;;;;5.70;62.19;99013.41;5029315;28;20053;-89
2023/04/05 07:46:16;;;;;;;9.95;5.80;;;;;;;5.78;63.05;99019.34;5030608;28;20021;-87
2023/04/05 07:48:42;;;;;;;9.60;6.10;;;;;;;5.69;62.45;99022.88;5031025;28;20017;-89
2023/04/05 07:51:09;;;;;;;14.27;7.35;;;;;;;5.87;63.31;99034.13;5031951;28;20117;-88
2023/04/05 07:53:36;;;;;;;6.85;4.60;;;;;;;6.21;63.52;99024.44;5030011;28;20029;-87
2023/04/05 07:56:06;;;;;;;12.77;6.45;;;;;;;6.60;62.10;99019.28;5047983;28;20079;-88
2023/04/05 07:58:33;;;;;;;9.80;5.80;;;;;;;6.82;62.79;99045.38;5031422;28;20025;-87
2023/04/05 08:01:03;;;;;;;4.35;3.78;;;;;;;6.72;60.92;99044.50;5025932;28;20112;-90
2023/04/05 08:03:30;;;;;;;6.35;4.47;;;;;;;6.26;60.35;99012.38;5041089;28;20037;-89
2023/04/05 08:05:55;;;;;;;6.97;3.42;;;;;;;6.49;62.47;99046.50;5036478;28;20032;-89
2023/04/05 08:08:23;;;;;;;10.38;4.60;;;;;;;6.59;64.32;99049.00;5035132;28;20090;-88
2023/04/05 08:10:49;;;;;;;6.13;4.47;;;;;;;6.56;63.27;99054.38;5036259;28;20065;-89
2023/04/05 08:13:14;;;;;;;12.20;5.00;;;;;;;6.39;61.37;99032.88;5035814;28;20458;-90
2023/04/05 08:15:40;;;;;;;4.97;4.00;;;;;;;6.29;61.65;99048.69;5026460;28;20033;-88
2023/04/05 08:18:06;;;;;;;4.93;3.50;;;;;;;6.31;61.84;99048.34;5042105;28;20033;-88
2023/04/05 08:20:37;;;;;;;7.05;3.75;;;;;;;6.42;63.26;99052.50;5034503;28;20029;-88
2023/04/05 08:23:03;;;;;;;4.55;2.80;;;;;;;6.35;62.49;99049.38;5034591;28;20056;-87
2023/04/05 08:25:29;;;;;;;3.22;2.88;;;;;;;6.43;62.03;99056.91;5034962;28;20024;-87
2023/04/05 08:27:54;;;;;;;3.08;2.70;;;;;;;6.39;61.76;99055.09;5035480;28;20065;-88
2023/04/05 08:30:22;;;;;;;5.75;3.45;;;;;;;6.41;61.40;99047.28;5036434;28;20025;-87
2023/04/05 08:32:47;;;;;;;5.03;4.05;;;;;;;6.60;62.65;99052.63;5036033;28;20021;-88
2023/04/05 08:35:13;;;;;;;5.35;3.72;;;;;;;6.70;62.00;99059.84;5034741;28;20048;-89
2023/04/05 08:37:39;;;;;;;6.38;2.78;;;;;;;6.57;60.93;99067.97;5034866;28;20488;-87
2023/04/05 08:40:07;;;;;;;5.63;2.85;;;;;;;6.43;59.61;99048.59;5035474;28;20021;-89
2023/04/05 08:42:41;;;;;;;6.65;3.05;;;;;;;6.41;59.49;99058.41;5035617;28;20474;-90
2023/04/05 08:45:10;;;;;;;7.28;4.30;;;;;;;6.59;60.62;99054.56;5035748;28;20025;-88
2023/04/05 08:47:37;;;;;;;4.25;2.90;;;;;;;6.74;59.61;99072.78;5031881;28;20021;-89
2023/04/05 08:50:04;;;;;;;6.38;4.82;;;;;;;6.58;60.62;99068.78;5034907;28;20024;-89
2023/04/05 08:52:31;;;;;;;7.30;5.18;;;;;;;6.87;59.66;99073.81;5022630;28;20108;-87
2023/04/05 08:54:56;;;;;;;7.47;4.68;;;;;;;6.87;60.70;99070.25;5015755;28;20022;-89
2023/04/05 08:57:27;;;;;;;4.13;3.30;;;;;;;6.88;59.98;99072.72;5049613;28;20029;-89
2023/04/05 08:59:55;;;;;;;7.10;4.45;;;;;;;6.77;58.68;99076.06;5036282;28;20025;-89
2023/04/05 09:02:23;;;;;;;4.07;3.60;;;;;;;6.76;61.48;99078.03;5035717;28;20457;-90
2023/04/05 09:04:50;;;;;;;4.13;2.95;;;;;;;6.92;61.83;99072.06;5036080;28;20024;-87
2023/04/05 09:07:16;;;;;;;4.55;3.35;;;;;;;6.86;60.43;99069.41;5032634;28;20032;-88
2023/04/05 09:09:47;;;;;;;4.95;3.88;;;;;;;6.87;58.69;99090.50;5035079;28;20039;-90
2023/04/05 09:12:14;;;;;;;15.98;3.58;;;;;;;6.93;61.03;99079.25;5035670;28;20025;-89
2023/04/05 09:14:41;;;;;;;4.60;3.22;;;;;;;7.02;59.75;99096.81;5031474;28;20558;-89
2023/04/05 09:17:08;;;;;;;5.85;4.43;;;;;;;7.11;59.85;99094.88;5026899;28;20069;-89
2023/04/05 09:19:34;;;;;;;4.53;2.50;;;;;;;7.30;58.08;99096.59;5026663;28;20037;-88
2023/04/05 09:22:06;;;;;;;3.92;2.90;;;;;;;7.27;59.63;99080.53;5062318;28;20093;-88
2023/04/05 09:24:40;;;;;;;6.53;3.17;;;;;;;7.49;57.78;99095.50;5058347;28;20484;-87
2023/04/05 09:27:10;;;;;;;4.25;3.50;;;;;;;7.14;57.44;99085.06;5032524;28;20527;-88
2023/04/05 09:29:37;;;;;;;5.07;2.77;;;;;;;7.23;59.36;99091.50;5031856;28;20025;-88
2023/04/05 09:32:03;;;;;;;15.05;5.70;;;;;;;7.23;58.20;99079.53;5029910;28;20084;-89
2023/04/05 09:34:31;;;;;;;20.02;6.88;;;;;;;7.29;58.53;99083.81;5032173;28;20056;-89
2023/04/05 09:36:56;;;;;;;8.10;4.88;;;;;;;7.15;59.72;99070.84;5024935;28;20394;-89
2023/04/05 09:39:32;;;;;;;3.35;2.92;;;;;;;7.09;57.32;99076.88;5037297;28;20031;-88
2023/04/05 09:42:14;;;;;;;3.28;2.83;;;;;;;6.98;57.22;99093.00;5033877;28;20143;-88
2023/04/05 09:44:55;;;;;;;4.47;4.07;;;;;;;7.05;56.96;99104.50;5025693;28;20108;-88
2023/04/05 09:47:24;;;;;;;6.22;4.07;;;;;;;7.08;57.31;99103.84;5028949;28;20082;-89
2023/04/05 09:49:50;;;;;;;11.75;4.25;;;;;;;6.88;56.36;99088.56;5026068;28;20451;-87
2023/04/05 09:52:27;;;;;;;10.75;5.13;;;;;;;6.97;57.71;99096.94;5025408;28;20029;-88
2023/04/05 09:54:55;;;;;;;5.30;4.13;;;;;;;7.25;59.19;99099.53;5023846;28;20031;-89
2023/04/05 09:57:31;;;;;;;12.40;5.88;;;;;;;7.28;57.79;99096.09;5030784;28;20032;-88
2023/04/05 09:59:57;;;;;;;13.40;6.30;;;;;;;7.04;57.91;99083.41;5026969;28;20028;-89
2023/04/05 10:02:23;;;;;;;12.88;6.50;;;;;;;7.09;58.08;99077.69;5028870;28;20025;-89
2023/04/05 10:04:49;;;;;;;10.82;6.22;;;;;;;7.10;59.38;99092.44;5031159;28;20047;-88
2023/04/05 10:07:16;;;;;;;14.43;7.65;;;;;;;7.20;59.76;99100.47;5028104;28;20022;-88
2023/04/05 10:09:46;;;;;;;7.00;3.80;;;;;;;7.07;59.26;99095.84;5042700;28;20025;-88
2023/04/05 10:12:20;;;;;;;6.93;3.90;;;;;;;6.99;60.31;99080.75;5030308;28;20025;-89
2023/04/05 10:14:46;;;;;;;6.80;4.18;;;;;;;7.02;60.18;99088.47;5042205;28;20037;-87
2023/04/05 10:17:13;;;;;;;4.72;3.83;;;;;;;7.26;59.36;99092.81;5029871;28;20085;-87
2023/04/05 10:20:06;;;;;;;7.53;5.20;;;;;;;7.28;59.21;99098.88;5022583;28;20025;-87
2023/04/05 10:22:36;;;;;;;6.78;4.50;;;;;;;7.13;58.20;99097.34;5020544;28;20060;-87
2023/04/05 10:25:11;;;;;;;9.40;4.65;;;;;;;7.21;58.68;99095.72;5025499;28;20025;-87
2023/04/05 10:27:45;;;;;;;6.45;4.25;;;;;;;7.25;59.83;99085.63;5031374;28;20079;-87
2023/04/05 10:30:12;;;;;;;13.00;6.10;;;;;;;7.20;59.21;99088.53;5018750;28;20017;-87
2023/04/05 10:32:54;;;;;;;11.88;6.40;;;;;;;7.25;58.14;99091.19;5025199;28;20484;-88
2023/04/05 10:35:30;;;;;;;9.82;4.68;;;;;;;7.54;58.43;99084.22;5024022;28;20055;-88
2023/04/05 10:38:34;;;;;;;17.55;8.32;;;;;;;7.66;57.27;99095.53;5025567;28;20036;-89
2023/04/05 10:41:09;;;;;;;17.30;8.00;;;;;;;7.54;57.63;99085.03;5029871;28;20090;-88
2023/04/05 10:43:37;;;;;;;4.90;2.95;;;;;;;7.49;57.59;99090.75;5032817;28;20492;-88
2023/04/05 10:46:05;;;;;;;4.78;4.28;;;;;;;7.69;59.02;99094.88;5028747;28;20036;-86
2023/04/05 10:48:53;;;;;;;5.57;4.22;;;;;;;7.53;57.98;99085.34;5026809;28;20513;-87
2023/04/05 10:51:22;;;;;;;9.13;4.22;;;;;;;7.44;57.97;99088.94;5049255;28;20029;-87
2023/04/05 10:53:50;;;;;;;14.18;6.22;;;;;;;7.41;59.73;99089.59;5043772;28;20016;-88
2023/04/05 10:56:17;;;;;;;10.48;6.57;;;;;;;7.25;59.95;99080.06;5020554;28;20064;-88
2023/04/05 10:58:43;;;;;;;7.15;5.40;;;;;;;7.06;59.03;99083.91;5030140;28;20028;-89
2023/04/05 11:01:10;;;;;;;6.32;4.15;;;;;;;7.09;61.73;99086.03;5028126;28;20021;-87
2023/04/05 11:03:49;;;;;;;5.20;3.80;;;;;;;7.12;60.41;99092.91;5023771;28;20503;-87
2023/04/05 11:06:46;;;;;;;7.93;4.65;;;;;;;7.14;60.19;99098.97;5022069;28;20029;-88
2023/04/05 11:09:17;;;;;;;5.03;4.47;;;;;;;6.87;59.03;99098.03;5023575;28;20033;-88
2023/04/05 11:11:50;;;;;;;9.32;5.57;;;;;;;7.00;59.87;99096.31;5032022;28;20028;-88
2023/04/05 11:14:21;;;;;;;4.57;3.80;;;;;;;6.87;58.84;99090.50;5032750;28;20025;-88
2023/04/05 11:16:55;;;;;;;22.60;7.90;;;;;;;7.03;60.75;99101.22;5033226;28;20029;-88
2023/04/05 11:19:43;;;;;;;6.70;4.90;;;;;;;7.06;59.48;99091.41;5028698;28;20043;-87
2023/04/05 11:22:12;;;;;;;4.95;4.38;;;;;;;6.96;60.18;99098.91;5050639;28;20025;-87
2023/04/05 11:24:52;;;;;;;4.60;4.10;;;;;;;7.02;61.81;99100.41;5048474;28;20028;-87
2023/04/05 11:27:31;;;;;;;5.72;4.40;;;;;;;7.05;60.87;99096.16;5022355;28;20032;-88
2023/04/05 11:30:00;;;;;;;8.13;5.38;;;;;;;7.07;59.44;99090.28;5044454;28;20143;-88
2023/04/05 11:32:44;;;;;;;12.73;6.50;;;;;;;7.08;59.22;99095.50;5028670;28;20082;-88
2023/04/05 11:35:21;;;;;;;12.60;6.78;;;;;;;7.03;59.01;99104.00;5038802;28;20472;-87
2023/04/05 11:37:55;;;;;;;6.80;3.40;;;;;;;6.84;59.25;99088.38;5020385;28;20022;-88
2023/04/05 11:40:30;;;;;;;9.88;5.95;;;;;;;7.00;59.12;99096.31;5032326;28;20116;-88
2023/04/05 11:43:08;;;;;;;11.18;6.80;;;;;;;6.95;59.00;99091.72;5048362;28;20450;-87